Terminal Aerodrome Forecast
Issued by NWS

Home | Current Version | Previous Version | Text Only | Print | Product List | Glossary On
Versions: 1 2 3 4 5 6 7 8 9 10 11 12
491
FTAK31 PAJN 250526
TAFAWG
TAF
PAWG 250526Z 2506/2606 VRB04KT P6SM FEW008 SCT035 BKN060
      TEMPO 2509/2513 5SM BR BKN005
     FM251500 10006KT P6SM SCT035 SCT060
     FM252100 VRB05KT P6SM SCT060 SCT200
      AMD LTD TO CLD VIS AND WIND 2506/2515=

USA.gov is the U.S. government's official web portal to all federal, state and local government web resources and services.